Time;durP1;ratioP1;P1;durP2;ratioP2;P2;SDS_P1;SDS_P2;PMS_P1;PMS_P2;Temp;Humidity;BMP_temperature;BMP_pressure;BME280_temperature;BME280_humidity;BME280_pressure;Samples;Min_cycle;Max_cycle;Signal;HPM_P1;HPM_P2
2020/12/25 00:02:09;;;;;;;4.95;4.38;;;4.80;99.90;;;;;;5026259;28;20216;-85
2020/12/25 00:04:47;;;;;;;4.80;4.30;;;4.70;99.90;;;;;;5022928;28;20204;-84
2020/12/25 00:07:19;;;;;;;5.50;4.70;;;4.80;99.90;;;;;;5024104;28;20217;-88
2020/12/25 00:09:51;;;;;;;6.43;5.13;;;4.80;99.90;;;;;;5023311;28;20662;-87
2020/12/25 00:12:21;;;;;;;5.65;4.00;;;4.80;99.90;;;;;;5029798;28;20185;-86
2020/12/25 00:14:51;;;;;;;4.95;3.63;;;4.70;99.90;;;;;;5032569;28;20189;-86
2020/12/25 00:17:23;;;;;;;6.00;4.63;;;4.70;99.90;;;;;;5003901;28;20204;-86
2020/12/25 00:19:49;;;;;;;6.65;3.90;;;4.70;99.90;;;;;;5029064;28;20240;-86
2020/12/25 00:22:22;;;;;;;5.50;3.92;;;4.70;99.90;;;;;;5029951;28;20220;-86
2020/12/25 00:25:06;;;;;;;7.38;3.70;;;4.70;99.90;;;;;;5023917;28;20276;-86
2020/12/25 00:27:35;;;;;;;5.53;3.90;;;4.70;99.90;;;;;;5019680;28;20564;-87
2020/12/25 00:30:06;;;;;;;5.53;3.45;;;4.70;99.90;;;;;;5018693;28;20407;-87
2020/12/25 00:35:21;;;;;;;3.72;3.40;;;4.80;99.90;;;;;;5028998;28;20208;-86
2020/12/25 00:37:49;;;;;;;5.65;3.75;;;4.70;99.90;;;;;;5023180;28;20188;-86
2020/12/25 00:40:16;;;;;;;5.63;3.95;;;4.70;99.90;;;;;;5021922;28;20282;-86
2020/12/25 00:42:48;;;;;;;5.50;4.10;;;4.70;99.90;;;;;;5020644;28;20315;-87
2020/12/25 00:45:18;;;;;;;6.68;4.10;;;4.70;99.90;;;;;;5021320;28;20218;-87
2020/12/25 00:47:59;;;;;;;5.32;3.38;;;4.70;99.90;;;;;;5024684;28;20214;-86
2020/12/25 00:50:29;;;;;;;5.82;3.65;;;4.70;99.90;;;;;;5023127;28;20228;-86
2020/12/25 00:53:02;;;;;;;5.32;3.70;;;4.70;99.90;;;;;;5020533;28;20207;-86
2020/12/25 00:55:32;;;;;;;4.57;4.03;;;4.70;99.90;;;;;;5020423;28;20200;-87
2020/12/25 00:58:14;;;;;;;5.32;3.90;;;4.80;99.90;;;;;;5020863;28;20260;-88
2020/12/25 01:00:45;;;;;;;5.20;3.13;;;4.80;99.90;;;;;;5022852;28;20188;-87
2020/12/25 01:03:11;;;;;;;3.85;3.55;;;4.70;99.90;;;;;;5023661;28;20254;-87
2020/12/25 01:05:39;;;;;;;4.53;3.40;;;4.70;99.90;;;;;;5023543;28;20212;-86
2020/12/25 01:08:13;;;;;;;4.05;3.70;;;4.60;99.90;;;;;;5024252;28;20219;-86
2020/12/25 01:10:41;;;;;;;4.55;4.15;;;4.70;99.90;;;;;;5023411;28;20199;-86
2020/12/25 01:13:10;;;;;;;5.72;4.07;;;4.70;99.90;;;;;;5024868;28;20250;-86
2020/12/25 01:15:47;;;;;;;4.35;3.92;;;4.70;99.90;;;;;;5027536;28;20215;-87
2020/12/25 01:18:15;;;;;;;5.00;3.80;;;4.70;99.90;;;;;;5023540;28;20709;-85
2020/12/25 01:20:51;;;;;;;6.00;4.25;;;4.70;99.90;;;;;;5022984;28;20294;-86
2020/12/25 01:23:22;;;;;;;3.38;3.08;;;4.70;99.90;;;;;;5023806;28;20660;-85
2020/12/25 01:25:54;;;;;;;4.88;3.83;;;4.60;99.90;;;;;;5024170;28;20248;-86
2020/12/25 01:28:25;;;;;;;3.08;2.88;;;4.60;99.90;;;;;;5023875;28;20256;-85
2020/12/25 01:30:54;;;;;;;4.55;3.78;;;4.60;99.90;;;;;;5024709;28;20192;-86
2020/12/25 01:33:22;;;;;;;7.95;3.25;;;4.60;99.90;;;;;;5023328;28;20581;-86
2020/12/25 01:35:49;;;;;;;6.32;4.38;;;4.60;99.90;;;;;;5023039;28;20204;-86
2020/12/25 01:38:18;;;;;;;5.55;3.00;;;4.60;99.90;;;;;;5022816;28;20719;-86
2020/12/25 01:41:04;;;;;;;4.90;2.33;;;4.70;99.90;;;;;;5022967;28;20682;-86
2020/12/25 01:43:33;;;;;;;6.80;3.47;;;4.60;99.90;;;;;;5023214;28;20196;-86
2020/12/25 01:46:03;;;;;;;4.43;3.00;;;4.60;99.90;;;;;;5022711;28;20272;-86
2020/12/25 01:48:34;;;;;;;3.50;2.83;;;4.60;99.90;;;;;;5022834;28;20220;-86
2020/12/25 01:51:01;;;;;;;3.83;3.42;;;4.70;99.90;;;;;;5022580;28;20189;-85
2020/12/25 01:53:31;;;;;;;3.20;2.90;;;4.70;99.90;;;;;;5021655;28;20204;-85
2020/12/25 01:56:03;;;;;;;6.35;2.92;;;4.70;99.90;;;;;;5022849;28;20235;-86
2020/12/25 01:58:31;;;;;;;3.67;3.00;;;4.70;99.90;;;;;;5023119;28;20279;-85
2020/12/25 02:01:04;;;;;;;2.95;2.75;;;4.70;99.90;;;;;;5023674;28;20209;-85
2020/12/25 02:03:35;;;;;;;2.75;2.55;;;4.60;99.90;;;;;;5022490;28;20204;-86
2020/12/25 02:06:04;;;;;;;2.28;2.17;;;4.50;99.90;;;;;;5022617;28;20283;-86
2020/12/25 02:08:35;;;;;;;2.33;2.13;;;4.50;99.90;;;;;;5022340;28;20586;-85
2020/12/25 02:11:03;;;;;;;3.42;2.05;;;4.60;99.90;;;;;;5022777;28;20255;-85
2020/12/25 02:13:33;;;;;;;2.65;1.48;;;4.60;99.90;;;;;;5022648;28;20684;-85
2020/12/25 02:16:07;;;;;;;2.40;2.20;;;4.50;99.90;;;;;;5021956;28;20192;-86
2020/12/25 02:18:45;;;;;;;3.17;1.50;;;4.50;99.90;;;;;;5021094;28;20231;-85
2020/12/25 02:21:12;;;;;;;2.13;1.90;;;4.40;99.90;;;;;;5022625;28;20697;-86
2020/12/25 02:23:39;;;;;;;2.08;1.67;;;4.30;99.90;;;;;;5022895;28;20201;-86
2020/12/25 02:26:05;;;;;;;2.10;1.63;;;4.30;99.90;;;;;;5023154;28;20669;-86
2020/12/25 02:31:17;;;;;;;1.95;1.80;;;4.30;99.90;;;;;;5024727;28;20204;-86
2020/12/25 02:33:43;;;;;;;1.23;1.13;;;4.30;99.90;;;;;;5030119;28;20193;-86
2020/12/25 02:36:19;;;;;;;1.85;1.17;;;4.30;99.90;;;;;;5021409;28;20267;-86
2020/12/25 02:38:51;;;;;;;1.30;1.20;;;4.30;99.90;;;;;;5021227;28;20228;-86
2020/12/25 02:41:17;;;;;;;1.60;1.50;;;4.20;99.90;;;;;;5021121;28;20299;-86
2020/12/25 02:43:46;;;;;;;1.52;1.42;;;4.30;99.90;;;;;;5027689;28;20247;-86
2020/12/25 02:46:21;;;;;;;1.17;1.13;;;4.20;99.90;;;;;;5030851;28;20208;-85
2020/12/25 02:48:49;;;;;;;1.15;1.05;;;4.20;99.90;;;;;;5024957;28;20277;-86
2020/12/25 02:51:18;;;;;;;1.27;1.05;;;4.20;99.90;;;;;;5027944;28;20192;-86
2020/12/25 02:53:48;;;;;;;2.15;1.15;;;4.20;99.90;;;;;;5037796;28;20247;-86
2020/12/25 02:56:24;;;;;;;4.38;1.83;;;4.10;99.90;;;;;;5030111;28;20231;-86
2020/12/25 02:58:58;;;;;;;1.27;1.17;;;4.10;99.90;;;;;;5023846;28;20228;-86
2020/12/25 03:01:26;;;;;;;2.75;1.10;;;4.20;99.90;;;;;;5021888;28;20211;-86
2020/12/25 03:03:53;;;;;;;2.30;1.00;;;4.10;99.90;;;;;;5021615;28;20204;-86
2020/12/25 03:06:20;;;;;;;3.25;1.10;;;4.10;99.90;;;;;;5022018;28;20291;-86
2020/12/25 03:08:46;;;;;;;1.17;1.08;;;4.20;99.90;;;;;;5021320;28;20553;-86
2020/12/25 03:11:13;;;;;;;1.10;1.00;;;4.10;99.90;;;;;;5021204;28;20732;-86
2020/12/25 03:13:39;;;;;;;1.83;1.27;;;4.00;99.90;;;;;;5021276;28;20215;-86
2020/12/25 03:16:05;;;;;;;2.55;1.13;;;4.10;99.90;;;;;;5020866;28;20201;-86
2020/12/25 03:18:31;;;;;;;1.70;1.23;;;4.10;99.90;;;;;;5022915;28;20644;-86
2020/12/25 03:20:58;;;;;;;1.35;1.25;;;4.10;99.90;;;;;;5023798;28;20222;-86
2020/12/25 03:23:25;;;;;;;1.10;1.10;;;4.20;99.90;;;;;;5019739;28;20275;-86
2020/12/25 03:25:51;;;;;;;1.20;1.10;;;4.00;99.90;;;;;;5020204;28;20214;-86
2020/12/25 03:28:17;;;;;;;1.75;0.95;;;3.90;99.90;;;;;;5022270;28;20609;-86
2020/12/25 03:30:44;;;;;;;1.75;1.10;;;3.90;99.90;;;;;;5022248;28;20365;-86
2020/12/25 03:33:10;;;;;;;1.10;1.00;;;4.00;99.90;;;;;;5021298;28;20250;-86
2020/12/25 03:35:36;;;;;;;1.20;1.10;;;4.00;99.90;;;;;;5020884;28;20204;-86
2020/12/25 03:38:03;;;;;;;0.90;0.90;;;4.00;99.90;;;;;;5022668;28;20200;-86
2020/12/25 03:40:30;;;;;;;2.30;1.40;;;4.10;99.90;;;;;;5022835;28;20230;-86
2020/12/25 03:42:56;;;;;;;1.10;1.00;;;3.80;99.90;;;;;;5022431;28;20256;-85
2020/12/25 03:45:22;;;;;;;1.20;1.10;;;3.90;99.90;;;;;;5022770;28;20343;-86
2020/12/25 03:47:49;;;;;;;1.65;1.10;;;3.90;99.90;;;;;;5022929;28;20215;-87
2020/12/25 03:50:15;;;;;;;1.60;1.20;;;4.00;99.90;;;;;;5021078;28;20220;-87
2020/12/25 03:52:41;;;;;;;1.50;1.40;;;3.80;99.90;;;;;;5024966;28;20232;-87
2020/12/25 03:55:07;;;;;;;3.80;1.30;;;3.90;99.90;;;;;;5036268;28;20215;-86
2020/12/25 03:57:35;;;;;;;1.38;1.27;;;4.00;99.90;;;;;;5037892;28;20283;-87
2020/12/25 04:00:01;;;;;;;1.58;1.48;;;3.90;99.90;;;;;;5038126;28;20315;-86
2020/12/25 04:02:27;;;;;;;1.40;1.05;;;3.90;99.90;;;;;;5038237;28;20285;-87
2020/12/25 04:04:53;;;;;;;1.35;1.25;;;4.00;99.90;;;;;;5038518;28;20199;-88
2020/12/25 04:07:20;;;;;;;1.33;1.23;;;3.90;99.90;;;;;;5022064;28;20200;-86
2020/12/25 04:09:46;;;;;;;2.17;1.00;;;4.00;99.90;;;;;;5020703;28;20220;-86
2020/12/25 04:12:12;;;;;;;1.83;1.15;;;3.90;99.90;;;;;;5019628;28;20620;-86
2020/12/25 04:14:40;;;;;;;1.20;1.10;;;3.90;99.90;;;;;;5020013;28;20204;-86
2020/12/25 04:17:06;;;;;;;1.67;1.45;;;4.00;99.90;;;;;;5022849;28;20266;-86
2020/12/25 04:19:33;;;;;;;1.42;1.20;;;4.00;99.90;;;;;;5026344;28;20228;-86
2020/12/25 04:21:59;;;;;;;1.25;1.10;;;3.90;99.90;;;;;;5028148;28;20239;-85
2020/12/25 04:24:26;;;;;;;1.75;1.13;;;4.00;99.90;;;;;;5024681;28;20305;-85
2020/12/25 04:26:52;;;;;;;3.17;1.15;;;4.00;99.90;;;;;;5023861;28;20208;-86
2020/12/25 04:29:18;;;;;;;1.85;1.10;;;4.00;99.90;;;;;;5023521;28;20311;-86
2020/12/25 04:31:45;;;;;;;2.20;1.30;;;4.00;99.90;;;;;;5031703;28;20204;-86
2020/12/25 04:34:12;;;;;;;1.40;1.30;;;4.00;99.90;;;;;;5037894;28;20211;-87
2020/12/25 04:36:38;;;;;;;1.90;1.42;;;4.00;99.90;;;;;;5037369;28;20191;-86
2020/12/25 04:39:06;;;;;;;1.25;0.90;;;3.90;99.90;;;;;;5037849;28;20243;-86
2020/12/25 04:41:33;;;;;;;1.23;1.00;;;4.10;99.90;;;;;;5037607;28;20212;-86
2020/12/25 04:44:01;;;;;;;2.78;1.23;;;4.10;99.90;;;;;;5036667;28;20235;-86
2020/12/25 04:46:27;;;;;;;2.45;1.10;;;4.10;99.90;;;;;;5031573;28;20690;-86
2020/12/25 04:48:55;;;;;;;2.50;1.20;;;4.10;99.90;;;;;;5021281;28;20246;-86
2020/12/25 04:51:22;;;;;;;1.00;1.00;;;4.10;99.90;;;;;;5022547;28;20215;-86
2020/12/25 04:53:50;;;;;;;1.70;1.60;;;4.10;99.90;;;;;;5021651;28;20347;-87
2020/12/25 04:56:17;;;;;;;1.60;1.30;;;4.00;99.90;;;;;;5024763;28;20502;-86
2020/12/25 04:58:43;;;;;;;6.25;1.80;;;3.90;99.90;;;;;;5021994;28;20270;-86
2020/12/25 05:01:11;;;;;;;5.80;4.05;;;3.80;99.90;;;;;;5021242;28;20215;-86
2020/12/25 05:03:38;;;;;;;8.73;5.20;;;3.80;99.90;;;;;;5019842;28;20204;-86
2020/12/25 05:06:07;;;;;;;2.33;2.13;;;3.70;99.90;;;;;;5020738;28;20218;-86
2020/12/25 05:08:38;;;;;;;3.80;1.73;;;3.60;99.90;;;;;;5021558;28;20720;-86
2020/12/25 05:11:05;;;;;;;3.65;3.25;;;3.70;99.90;;;;;;5022148;28;20212;-86
2020/12/25 05:13:32;;;;;;;3.22;2.92;;;3.60;99.90;;;;;;5022178;28;20235;-86
2020/12/25 05:15:58;;;;;;;8.13;4.45;;;3.60;99.90;;;;;;5021975;28;20280;-86
2020/12/25 05:18:30;;;;;;;2.47;2.28;;;3.60;99.90;;;;;;5021981;28;20204;-86
2020/12/25 05:20:57;;;;;;;9.32;4.38;;;3.60;99.90;;;;;;5020674;28;20251;-86
2020/12/25 05:23:31;;;;;;;2.28;1.50;;;3.50;99.90;;;;;;5018792;28;20246;-86
2020/12/25 05:26:00;;;;;;;2.63;2.00;;;3.40;99.90;;;;;;5019616;28;20189;-86
2020/12/25 05:28:28;;;;;;;1.90;1.80;;;3.40;99.90;;;;;;5020699;28;20211;-86
2020/12/25 05:30:57;;;;;;;1.73;1.33;;;3.40;99.90;;;;;;5024628;28;20208;-85
2020/12/25 05:33:24;;;;;;;1.40;1.30;;;3.40;99.90;;;;;;5034130;28;20212;-85
2020/12/25 05:35:54;;;;;;;3.25;1.30;;;3.40;99.90;;;;;;5022509;28;20263;-86
2020/12/25 05:38:21;;;;;;;2.13;1.45;;;3.50;99.90;;;;;;5020781;28;20263;-86
2020/12/25 05:40:49;;;;;;;1.60;1.13;;;3.50;99.90;;;;;;5020654;28;20235;-85
2020/12/25 05:43:16;;;;;;;1.60;1.50;;;3.50;99.90;;;;;;5020691;28;20293;-86
2020/12/25 05:45:43;;;;;;;1.40;1.30;;;3.50;99.90;;;;;;5027981;28;20273;-85
2020/12/25 05:48:10;;;;;;;2.40;1.35;;;3.60;99.90;;;;;;5023862;28;20212;-86
2020/12/25 05:50:37;;;;;;;1.58;1.48;;;3.50;99.90;;;;;;5022854;28;20620;-86
2020/12/25 05:53:05;;;;;;;1.20;1.10;;;3.60;99.90;;;;;;5024811;28;20222;-86
2020/12/25 05:55:32;;;;;;;1.50;1.30;;;3.70;99.90;;;;;;5024759;28;20204;-86
2020/12/25 05:58:00;;;;;;;1.17;1.08;;;3.60;99.90;;;;;;5025827;28;20240;-86
2020/12/25 06:00:28;;;;;;;1.30;0.93;;;3.70;99.90;;;;;;5023729;28;20236;-86
2020/12/25 06:02:55;;;;;;;1.33;0.80;;;3.70;99.90;;;;;;5024516;28;20224;-85
2020/12/25 06:05:23;;;;;;;0.80;0.80;;;3.60;99.90;;;;;;5021765;28;20287;-86
2020/12/25 06:07:51;;;;;;;1.10;1.00;;;3.60;99.90;;;;;;5022798;28;20255;-85
2020/12/25 06:10:19;;;;;;;1.10;1.00;;;3.50;99.90;;;;;;5029870;28;20261;-86
2020/12/25 06:12:47;;;;;;;3.03;1.48;;;3.50;99.90;;;;;;5035686;28;20212;-86
2020/12/25 06:15:21;;;;;;;1.00;1.00;;;3.50;99.90;;;;;;5036285;28;20204;-86
2020/12/25 06:18:03;;;;;;;1.63;1.20;;;3.50;99.90;;;;;;5035634;28;20252;-85
2020/12/25 06:20:33;;;;;;;1.30;1.20;;;3.50;99.90;;;;;;5036038;28;20283;-85
2020/12/25 06:23:02;;;;;;;2.80;1.45;;;3.40;99.90;;;;;;5034144;28;20459;-85
2020/12/25 06:25:29;;;;;;;2.60;1.70;;;3.50;99.90;;;;;;5036076;28;20224;-85
2020/12/25 06:28:00;;;;;;;2.15;1.90;;;3.40;99.90;;;;;;5036393;28;20192;-85
2020/12/25 06:30:29;;;;;;;2.17;2.08;;;3.10;99.90;;;;;;5036226;28;20228;-85
2020/12/25 06:32:56;;;;;;;1.90;1.80;;;3.10;99.90;;;;;;5035894;28;20220;-85
2020/12/25 06:35:33;;;;;;;2.45;2.30;;;3.20;99.90;;;;;;5035265;28;20205;-85
2020/12/25 06:38:08;;;;;;;3.95;2.20;;;3.20;99.90;;;;;;5035032;28;20218;-84
2020/12/25 06:40:35;;;;;;;3.50;2.67;;;3.20;99.90;;;;;;5035589;28;20235;-85
2020/12/25 06:43:01;;;;;;;2.72;2.53;;;3.10;99.90;;;;;;5030762;28;20274;-86
2020/12/25 06:45:31;;;;;;;3.67;3.38;;;3.20;99.90;;;;;;5031967;28;20264;-85
2020/12/25 06:48:14;;;;;;;5.75;3.50;;;3.20;99.90;;;;;;5033201;28;20231;-85
2020/12/25 06:50:46;;;;;;;4.95;4.00;;;3.20;99.90;;;;;;5031224;28;20215;-86
2020/12/25 06:53:35;;;;;;;5.28;3.60;;;3.10;99.90;;;;;;5028389;28;20922;-86
2020/12/25 06:56:13;;;;;;;5.83;4.10;;;3.10;99.90;;;;;;5025117;28;20516;-85
2020/12/25 06:58:42;;;;;;;3.72;3.35;;;3.00;99.90;;;;;;5026012;28;20467;-85
2020/12/25 07:01:12;;;;;;;3.65;3.35;;;3.10;99.90;;;;;;5025478;28;20224;-85
2020/12/25 07:03:38;;;;;;;5.72;4.78;;;3.10;99.90;;;;;;5022935;28;20644;-87
2020/12/25 07:06:06;;;;;;;2.75;2.55;;;3.00;99.90;;;;;;5022838;28;20204;-84
2020/12/25 07:08:38;;;;;;;2.55;2.30;;;3.10;99.90;;;;;;5027955;28;20232;-85
2020/12/25 07:11:06;;;;;;;3.42;2.47;;;3.00;99.90;;;;;;5031767;28;20256;-85
2020/12/25 07:13:32;;;;;;;5.60;3.35;;;2.90;99.90;;;;;;5030291;28;20291;-85
2020/12/25 07:16:01;;;;;;;3.20;2.55;;;3.00;99.90;;;;;;5028370;28;20227;-85
2020/12/25 07:18:29;;;;;;;3.55;3.25;;;3.10;99.90;;;;;;5024074;28;20283;-85
2020/12/25 07:20:59;;;;;;;2.92;2.72;;;3.10;99.90;;;;;;5023305;28;20216;-85
2020/12/25 07:23:26;;;;;;;2.40;2.28;;;3.10;99.90;;;;;;5022994;28;20572;-86
2020/12/25 07:25:56;;;;;;;2.90;2.50;;;3.10;99.90;;;;;;5022942;28;20204;-86
2020/12/25 07:28:24;;;;;;;2.55;2.35;;;3.20;99.90;;;;;;5022493;28;20231;-85
2020/12/25 07:30:52;;;;;;;5.78;3.08;;;3.10;99.90;;;;;;5024321;28;20311;-86
2020/12/25 07:33:18;;;;;;;1.92;1.83;;;3.10;99.90;;;;;;5023350;28;20295;-86
2020/12/25 07:35:45;;;;;;;2.10;2.00;;;3.10;99.90;;;;;;5022499;28;20205;-86
2020/12/25 07:38:13;;;;;;;3.33;2.20;;;3.10;99.90;;;;;;5022233;28;20446;-86
2020/12/25 07:40:40;;;;;;;3.22;2.50;;;3.10;99.90;;;;;;5019958;28;20812;-86
2020/12/25 07:43:06;;;;;;;2.63;2.38;;;3.10;99.90;;;;;;5020303;28;20639;-86
2020/12/25 07:45:34;;;;;;;3.45;2.00;;;3.20;99.90;;;;;;5019073;28;20449;-86
2020/12/25 07:48:02;;;;;;;3.45;2.55;;;3.20;99.90;;;;;;5021244;28;20216;-86
2020/12/25 07:50:33;;;;;;;3.80;2.00;;;3.10;99.90;;;;;;5021917;28;20231;-86
2020/12/25 07:53:00;;;;;;;2.30;2.03;;;3.10;99.90;;;;;;5022198;28;20210;-86
2020/12/25 07:55:29;;;;;;;2.60;1.50;;;3.10;99.90;;;;;;5022227;28;20447;-86
2020/12/25 07:57:56;;;;;;;2.40;2.20;;;3.10;99.90;;;;;;5022746;28;20205;-85
2020/12/25 08:00:24;;;;;;;3.35;2.20;;;3.20;99.90;;;;;;5021458;28;20220;-84
2020/12/25 08:02:53;;;;;;;3.10;2.20;;;3.10;99.90;;;;;;5021056;28;20494;-85
2020/12/25 08:05:20;;;;;;;3.83;2.65;;;3.20;99.90;;;;;;5022557;28;20822;-84
2020/12/25 08:07:47;;;;;;;2.60;2.40;;;3.20;99.90;;;;;;5026582;28;20398;-85
2020/12/25 08:10:17;;;;;;;3.58;3.28;;;3.20;99.90;;;;;;5022110;28;20784;-85
2020/12/25 08:12:45;;;;;;;2.53;2.15;;;3.10;99.90;;;;;;5022191;28;20237;-85
2020/12/25 08:15:12;;;;;;;1.90;1.80;;;3.10;99.90;;;;;;5022107;28;20220;-86
2020/12/25 08:17:40;;;;;;;2.53;1.90;;;3.20;99.90;;;;;;5023684;28;20291;-85
2020/12/25 08:20:06;;;;;;;3.63;1.63;;;3.20;99.90;;;;;;5059890;22;20486;-86
2020/12/25 08:22:33;;;;;;;1.60;1.50;;;3.10;99.90;;;;;;5032820;28;20274;-85
2020/12/25 08:24:59;;;;;;;1.77;1.55;;;3.10;99.90;;;;;;5032259;28;20272;-85
2020/12/25 08:27:32;;;;;;;2.08;1.80;;;3.10;99.90;;;;;;5025803;28;20236;-85
2020/12/25 08:30:00;;;;;;;2.17;1.70;;;3.10;99.90;;;;;;5024960;28;20696;-85
2020/12/25 08:32:30;;;;;;;2.15;1.40;;;3.20;99.90;;;;;;5031502;28;20204;-86
2020/12/25 08:35:12;;;;;;;1.77;1.67;;;3.20;99.90;;;;;;5032821;28;20208;-85
2020/12/25 08:37:39;;;;;;;1.65;1.55;;;3.10;99.90;;;;;;5029054;28;20214;-85
2020/12/25 08:40:15;;;;;;;4.47;1.50;;;3.10;99.90;;;;;;5026812;28;20803;-86
2020/12/25 08:42:42;;;;;;;1.75;1.65;;;3.20;99.90;;;;;;5030293;28;20246;-86
2020/12/25 08:45:09;;;;;;;2.53;1.25;;;3.20;99.90;;;;;;5025968;28;20226;-87
2020/12/25 08:47:36;;;;;;;1.40;1.30;;;3.10;99.90;;;;;;5026089;28;20272;-87
2020/12/25 08:50:03;;;;;;;2.85;1.67;;;3.20;99.90;;;;;;5024854;28;20306;-87
2020/12/25 08:52:29;;;;;;;1.75;1.33;;;3.10;99.90;;;;;;5028967;28;20697;-86
2020/12/25 08:54:57;;;;;;;1.45;1.35;;;3.20;99.90;;;;;;5023910;28;20246;-85
2020/12/25 08:57:23;;;;;;;2.03;1.52;;;3.20;99.90;;;;;;5033326;28;20200;-85
2020/12/25 09:00:01;;;;;;;1.27;1.17;;;3.10;99.90;;;;;;5024827;28;20638;-86
2020/12/25 09:02:28;;;;;;;2.58;1.17;;;3.20;99.90;;;;;;5025033;28;20221;-86
2020/12/25 09:04:54;;;;;;;1.40;1.30;;;3.10;99.90;;;;;;5023597;28;20207;-85
2020/12/25 09:07:20;;;;;;;1.40;1.30;;;3.20;99.90;;;;;;5022943;28;20291;-85
2020/12/25 09:09:47;;;;;;;2.58;1.65;;;3.20;99.90;;;;;;5022985;28;20258;-86
2020/12/25 09:12:13;;;;;;;3.53;1.70;;;3.10;99.90;;;;;;5025263;28;20288;-85
2020/12/25 09:14:39;;;;;;;3.08;1.80;;;3.10;99.90;;;;;;5037433;28;20192;-85
2020/12/25 09:17:06;;;;;;;2.20;1.70;;;3.10;99.90;;;;;;5036176;28;20288;-86
2020/12/25 09:19:33;;;;;;;3.10;1.80;;;3.20;99.90;;;;;;5035532;28;20251;-87
2020/12/25 09:21:59;;;;;;;1.88;1.77;;;3.20;99.90;;;;;;5031236;28;20213;-87
2020/12/25 09:24:25;;;;;;;2.75;1.60;;;3.20;99.90;;;;;;5029902;28;20204;-86
2020/12/25 09:26:52;;;;;;;1.67;1.58;;;3.30;99.90;;;;;;5029829;28;20209;-86
2020/12/25 09:29:18;;;;;;;2.00;1.90;;;3.40;99.90;;;;;;5032736;28;20258;-86
2020/12/25 09:31:45;;;;;;;2.35;1.70;;;3.40;99.90;;;;;;5034501;28;20238;-87
2020/12/25 09:34:14;;;;;;;2.15;2.00;;;3.30;99.90;;;;;;5028157;28;20200;-86
2020/12/25 09:36:43;;;;;;;2.65;2.28;;;3.20;99.90;;;;;;5026997;28;20228;-85
2020/12/25 09:39:10;;;;;;;2.08;1.88;;;3.20;99.90;;;;;;5026926;28;20216;-87
2020/12/25 09:41:36;;;;;;;2.10;1.63;;;3.30;99.90;;;;;;5027251;28;20234;-87
2020/12/25 09:44:02;;;;;;;2.25;1.63;;;3.40;99.90;;;;;;5025465;28;20283;-86
2020/12/25 09:46:29;;;;;;;3.20;2.00;;;3.30;99.90;;;;;;5023893;28;20669;-87
2020/12/25 09:48:57;;;;;;;2.00;1.58;;;3.40;99.90;;;;;;5025236;28;20261;-86
2020/12/25 09:51:25;;;;;;;2.65;1.40;;;3.50;99.90;;;;;;5024240;28;20240;-86
2020/12/25 09:53:51;;;;;;;2.00;1.70;;;3.40;99.90;;;;;;5026385;28;20200;-86
2020/12/25 09:56:18;;;;;;;2.00;1.75;;;3.40;99.90;;;;;;5024669;28;20204;-86
2020/12/25 09:58:47;;;;;;;2.22;2.00;;;3.40;99.90;;;;;;5027503;28;20327;-86
2020/12/25 10:01:15;;;;;;;1.50;1.40;;;3.60;99.90;;;;;;5029086;28;20224;-86
2020/12/25 10:03:43;;;;;;;2.20;1.83;;;3.60;99.90;;;;;;5026768;28;20228;-84
2020/12/25 10:06:10;;;;;;;1.60;1.50;;;3.60;99.90;;;;;;5027889;28;20215;-86
2020/12/25 10:08:37;;;;;;;7.47;1.73;;;3.50;99.90;;;;;;5031627;28;20283;-86
2020/12/25 10:11:03;;;;;;;3.72;2.15;;;3.50;99.90;;;;;;5034681;28;20247;-84
2020/12/25 10:13:30;;;;;;;2.15;1.83;;;3.40;99.90;;;;;;5028705;28;20200;-84
2020/12/25 10:15:58;;;;;;;3.05;2.10;;;3.60;99.90;;;;;;5027902;28;20244;-85
2020/12/25 10:18:24;;;;;;;1.75;1.65;;;3.60;99.90;;;;;;5025745;28;20227;-86
2020/12/25 10:20:51;;;;;;;1.73;1.48;;;3.60;99.90;;;;;;5026322;28;20236;-85
2020/12/25 10:23:17;;;;;;;4.50;1.88;;;3.50;99.90;;;;;;5025593;28;20322;-85
2020/12/25 10:25:44;;;;;;;3.13;2.17;;;3.70;99.90;;;;;;5025642;28;20272;-86
2020/12/25 10:28:12;;;;;;;3.85;2.28;;;3.70;99.90;;;;;;5024585;28;20692;-86
2020/12/25 10:30:38;;;;;;;1.80;1.58;;;3.70;99.90;;;;;;5024584;28;20284;-85
2020/12/25 10:33:05;;;;;;;2.97;1.48;;;3.70;99.90;;;;;;5025749;28;20222;-86
2020/12/25 10:35:31;;;;;;;7.00;1.80;;;3.70;99.90;;;;;;5028144;28;20308;-85
2020/12/25 10:37:57;;;;;;;2.33;1.50;;;3.70;99.90;;;;;;5024730;28;20204;-86
2020/12/25 10:40:24;;;;;;;3.20;1.90;;;3.70;99.90;;;;;;5036659;28;20318;-86
2020/12/25 10:42:51;;;;;;;3.58;2.05;;;3.60;99.90;;;;;;5031133;28;20232;-84
2020/12/25 10:45:17;;;;;;;6.03;2.33;;;3.80;99.90;;;;;;5032807;28;20199;-86
2020/12/25 10:47:44;;;;;;;1.80;1.70;;;3.80;99.90;;;;;;5034214;28;20215;-84
2020/12/25 10:50:10;;;;;;;4.05;1.67;;;3.80;99.90;;;;;;5034895;28;20251;-86
2020/12/25 10:52:36;;;;;;;1.92;1.40;;;3.90;99.90;;;;;;5033038;28;20394;-86
2020/12/25 10:55:03;;;;;;;2.58;1.80;;;3.90;99.90;;;;;;5032858;28;20263;-85
2020/12/25 10:57:31;;;;;;;3.55;1.95;;;3.80;99.90;;;;;;5030241;28;20204;-87
2020/12/25 10:59:58;;;;;;;4.03;1.80;;;3.80;99.90;;;;;;5026346;28;20228;-86
2020/12/25 11:02:25;;;;;;;3.65;2.03;;;3.80;99.90;;;;;;5024596;28;20704;-86
2020/12/25 11:04:51;;;;;;;3.95;2.10;;;3.90;99.90;;;;;;5026059;28;20269;-87
2020/12/25 11:07:17;;;;;;;2.30;2.10;;;4.00;99.90;;;;;;5026439;28;20227;-86
2020/12/25 11:09:44;;;;;;;3.17;2.10;;;3.80;99.90;;;;;;5026429;28;20231;-86
2020/12/25 11:12:10;;;;;;;4.65;1.95;;;3.80;99.90;;;;;;5028026;28;20248;-85
2020/12/25 11:14:36;;;;;;;2.25;1.80;;;3.90;99.90;;;;;;5036216;28;20204;-84
2020/12/25 11:17:03;;;;;;;2.95;2.63;;;3.80;99.90;;;;;;5035778;28;20239;-84
2020/12/25 11:19:30;;;;;;;3.63;1.63;;;3.90;99.90;;;;;;5035292;28;20208;-84
2020/12/25 11:21:56;;;;;;;3.28;2.40;;;4.00;99.90;;;;;;5031755;28;20216;-86
2020/12/25 11:24:22;;;;;;;2.47;1.98;;;4.00;99.90;;;;;;5025018;28;20236;-88
2020/12/25 11:26:49;;;;;;;3.60;1.90;;;3.90;99.90;;;;;;5024271;28;20237;-88
2020/12/25 11:29:15;;;;;;;4.28;2.13;;;4.10;99.90;;;;;;5021741;28;20231;-87
2020/12/25 11:31:41;;;;;;;2.58;1.70;;;4.00;99.90;;;;;;5022657;28;20232;-86
2020/12/25 11:34:09;;;;;;;2.08;1.80;;;4.00;99.90;;;;;;5022103;28;20310;-87
2020/12/25 11:36:36;;;;;;;3.63;2.35;;;4.00;99.90;;;;;;5021227;28;20300;-87
2020/12/25 11:39:04;;;;;;;3.03;2.15;;;4.00;99.90;;;;;;5021863;28;20192;-86
2020/12/25 11:41:30;;;;;;;4.22;2.30;;;4.00;99.90;;;;;;5021750;28;20284;-87
2020/12/25 11:43:57;;;;;;;2.85;2.28;;;4.10;99.90;;;;;;5025457;28;20259;-87
2020/12/25 11:46:24;;;;;;;4.07;2.10;;;4.00;99.90;;;;;;5032633;28;20228;-88
2020/12/25 11:48:51;;;;;;;3.67;2.50;;;4.00;99.90;;;;;;5030082;28;20565;-86
2020/12/25 11:51:20;;;;;;;3.33;2.15;;;4.00;99.90;;;;;;5023331;28;20270;-86
2020/12/25 11:53:46;;;;;;;3.20;2.78;;;4.10;99.90;;;;;;5022723;28;20252;-87
2020/12/25 11:56:13;;;;;;;3.92;2.05;;;4.20;99.90;;;;;;5025198;28;20210;-87
2020/12/25 11:58:40;;;;;;;4.72;2.67;;;4.20;99.90;;;;;;5026358;28;20204;-87
2020/12/25 12:01:06;;;;;;;8.45;2.78;;;4.00;99.90;;;;;;5029309;28;20292;-87
2020/12/25 12:03:32;;;;;;;2.97;2.70;;;4.00;99.90;;;;;;5036672;28;20231;-85
2020/12/25 12:05:59;;;;;;;2.53;2.20;;;4.00;99.90;;;;;;5038321;28;20218;-84
2020/12/25 12:08:26;;;;;;;2.08;1.95;;;4.00;99.90;;;;;;5035930;28;20343;-84
2020/12/25 12:10:53;;;;;;;2.75;2.00;;;3.90;99.90;;;;;;5024805;28;20228;-83
2020/12/25 12:13:19;;;;;;;5.80;2.22;;;4.10;99.90;;;;;;5023705;28;20287;-84
2020/12/25 12:15:45;;;;;;;2.15;2.00;;;4.00;99.90;;;;;;5024602;28;20224;-83
2020/12/25 12:18:11;;;;;;;3.33;2.70;;;4.00;99.90;;;;;;5023625;28;20265;-84
2020/12/25 12:20:38;;;;;;;4.15;2.60;;;3.90;99.90;;;;;;5022081;28;20236;-86
2020/12/25 12:23:04;;;;;;;2.70;1.95;;;4.00;99.90;;;;;;5022936;28;20251;-85
2020/12/25 12:25:31;;;;;;;3.28;2.22;;;3.90;99.90;;;;;;5022917;28;20212;-85
2020/12/25 12:27:58;;;;;;;2.65;2.40;;;3.90;99.90;;;;;;5022774;28;20592;-85
2020/12/25 12:30:24;;;;;;;4.50;2.10;;;3.80;99.90;;;;;;5023472;28;20296;-85
2020/12/25 12:32:51;;;;;;;4.93;2.58;;;3.80;99.90;;;;;;5029799;28;20251;-84
2020/12/25 12:35:28;;;;;;;4.70;2.30;;;3.90;99.90;;;;;;5037052;28;20660;-84
2020/12/25 12:38:00;;;;;;;2.30;1.80;;;3.80;99.90;;;;;;5029206;28;20482;-85
2020/12/25 12:40:26;;;;;;;3.67;2.60;;;4.00;99.90;;;;;;5026465;28;20232;-85
2020/12/25 12:42:53;;;;;;;5.30;2.85;;;3.80;99.90;;;;;;5027553;28;20311;-84
2020/12/25 12:45:20;;;;;;;2.58;2.30;;;3.70;99.90;;;;;;5026103;28;20200;-87
2020/12/25 12:47:48;;;;;;;3.58;2.42;;;3.70;99.90;;;;;;5024387;28;20200;-85
2020/12/25 12:50:21;;;;;;;2.35;1.40;;;3.80;99.90;;;;;;5025934;28;20209;-86
2020/12/25 12:52:50;;;;;;;4.15;2.10;;;3.80;99.90;;;;;;5027597;28;20264;-85
2020/12/25 12:55:16;;;;;;;2.88;1.52;;;3.90;99.90;;;;;;5025359;28;20276;-84
2020/12/25 12:57:43;;;;;;;2.33;1.90;;;3.90;99.90;;;;;;5031646;28;20447;-85
2020/12/25 13:00:10;;;;;;;1.80;1.70;;;3.90;99.90;;;;;;5038425;28;20291;-85
2020/12/25 13:02:39;;;;;;;2.08;1.88;;;4.00;99.90;;;;;;5037135;28;20389;-86
2020/12/25 13:05:09;;;;;;;2.40;1.95;;;4.00;99.90;;;;;;5029703;28;20208;-86
2020/12/25 13:07:36;;;;;;;3.10;2.10;;;3.90;99.90;;;;;;5027059;28;20212;-86
2020/12/25 13:10:02;;;;;;;2.00;1.85;;;3.80;99.90;;;;;;5025159;28;20224;-86